sensor_id;sensor_type;location;lat;lon;timestamp;temperature;humidity
1546;DHT22;766;51.502;9.752;2023-05-10T00:01:52;15.20;99.90
1546;DHT22;766;51.502;9.752;2023-05-10T00:04:22;15.00;99.90
1546;DHT22;766;51.502;9.752;2023-05-10T00:06:54;15.00;99.90
1546;DHT22;766;51.502;9.752;2023-05-10T00:09:22;15.00;99.90
1546;DHT22;766;51.502;9.752;2023-05-10T00:11:51;15.00;99.90
1546;DHT22;766;51.502;9.752;2023-05-10T00:14:19;15.10;99.90
1546;DHT22;766;51.502;9.752;2023-05-10T00:16:48;15.20;99.90
1546;DHT22;766;51.502;9.752;2023-05-10T00:19:16;15.20;99.90
1546;DHT22;766;51.502;9.752;2023-05-10T00:21:46;15.00;99.90
1546;DHT22;766;51.502;9.752;2023-05-10T00:24:16;15.00;99.90
1546;DHT22;766;51.502;9.752;2023-05-10T00:26:44;15.00;99.90
1546;DHT22;766;51.502;9.752;2023-05-10T00:29:12;14.90;99.90
1546;DHT22;766;51.502;9.752;2023-05-10T00:31:41;15.00;99.90
1546;DHT22;766;51.502;9.752;2023-05-10T00:34:09;15.20;99.90
1546;DHT22;766;51.502;9.752;2023-05-10T00:36:38;15.10;99.90
1546;DHT22;766;51.502;9.752;2023-05-10T00:39:08;15.20;99.90
1546;DHT22;766;51.502;9.752;2023-05-10T00:41:36;15.30;99.90
1546;DHT22;766;51.502;9.752;2023-05-10T00:44:05;15.30;99.90
1546;DHT22;766;51.502;9.752;2023-05-10T00:46:33;15.10;99.90
1546;DHT22;766;51.502;9.752;2023-05-10T00:49:03;15.10;99.90
1546;DHT22;766;51.502;9.752;2023-05-10T00:51:32;15.00;99.90
1546;DHT22;766;51.502;9.752;2023-05-10T00:54:00;15.00;99.90
1546;DHT22;766;51.502;9.752;2023-05-10T00:56:31;15.00;99.90
1546;DHT22;766;51.502;9.752;2023-05-10T00:59:01;15.20;99.90
1546;DHT22;766;51.502;9.752;2023-05-10T01:01:29;15.10;99.90
1546;DHT22;766;51.502;9.752;2023-05-10T01:03:59;14.90;99.90
1546;DHT22;766;51.502;9.752;2023-05-10T01:06:27;14.80;99.90
1546;DHT22;766;51.502;9.752;2023-05-10T01:08:56;14.90;99.90
1546;DHT22;766;51.502;9.752;2023-05-10T01:11:24;15.00;99.90
1546;DHT22;766;51.502;9.752;2023-05-10T01:13:56;15.20;99.90
1546;DHT22;766;51.502;9.752;2023-05-10T01:16:26;15.10;99.90
1546;DHT22;766;51.502;9.752;2023-05-10T01:18:55;15.00;99.90
1546;DHT22;766;51.502;9.752;2023-05-10T01:21:29;14.90;99.90
1546;DHT22;766;51.502;9.752;2023-05-10T01:24:27;14.80;99.90
1546;DHT22;766;51.502;9.752;2023-05-10T01:27:33;14.60;99.90
1546;DHT22;766;51.502;9.752;2023-05-10T01:30:26;14.70;99.90
1546;DHT22;766;51.502;9.752;2023-05-10T01:33:01;14.80;99.90
1546;DHT22;766;51.502;9.752;2023-05-10T01:35:39;14.70;99.90
1546;DHT22;766;51.502;9.752;2023-05-10T01:38:16;14.90;99.90
1546;DHT22;766;51.502;9.752;2023-05-10T01:40:53;14.70;99.90
1546;DHT22;766;51.502;9.752;2023-05-10T01:43:28;14.70;99.90
1546;DHT22;766;51.502;9.752;2023-05-10T01:46:02;14.80;99.90
1546;DHT22;766;51.502;9.752;2023-05-10T01:48:42;14.80;99.90
1546;DHT22;766;51.502;9.752;2023-05-10T01:51:16;14.80;99.90
1546;DHT22;766;51.502;9.752;2023-05-10T01:53:48;14.60;99.90
1546;DHT22;766;51.502;9.752;2023-05-10T01:56:17;14.60;99.90
1546;DHT22;766;51.502;9.752;2023-05-10T01:58:48;14.60;99.90
1546;DHT22;766;51.502;9.752;2023-05-10T02:01:20;14.50;99.90
1546;DHT22;766;51.502;9.752;2023-05-10T02:03:51;14.60;99.90
1546;DHT22;766;51.502;9.752;2023-05-10T02:06:22;14.70;99.90
1546;DHT22;766;51.502;9.752;2023-05-10T02:08:53;14.80;99.90
1546;DHT22;766;51.502;9.752;2023-05-10T02:11:21;14.60;99.90
1546;DHT22;766;51.502;9.752;2023-05-10T02:13:51;14.60;99.90
1546;DHT22;766;51.502;9.752;2023-05-10T02:16:23;14.50;99.90
1546;DHT22;766;51.502;9.752;2023-05-10T02:18:54;14.40;99.90
1546;DHT22;766;51.502;9.752;2023-05-10T02:21:26;14.30;99.90
1546;DHT22;766;51.502;9.752;2023-05-10T02:23:57;14.40;99.90
1546;DHT22;766;51.502;9.752;2023-05-10T02:26:26;14.30;99.90
1546;DHT22;766;51.502;9.752;2023-05-10T02:28:56;14.20;99.90
1546;DHT22;766;51.502;9.752;2023-05-10T02:31:25;14.30;99.90
1546;DHT22;766;51.502;9.752;2023-05-10T02:33:57;14.20;99.90
1546;DHT22;766;51.502;9.752;2023-05-10T02:36:27;14.00;99.90
1546;DHT22;766;51.502;9.752;2023-05-10T02:38:56;13.80;99.90
1546;DHT22;766;51.502;9.752;2023-05-10T02:41:25;13.80;99.90
1546;DHT22;766;51.502;9.752;2023-05-10T02:43:57;13.80;99.90
1546;DHT22;766;51.502;9.752;2023-05-10T02:46:27;13.70;99.90
1546;DHT22;766;51.502;9.752;2023-05-10T02:48:57;13.70;99.90
1546;DHT22;766;51.502;9.752;2023-05-10T02:51:30;13.60;99.90
1546;DHT22;766;51.502;9.752;2023-05-10T02:54:06;13.70;99.90
1546;DHT22;766;51.502;9.752;2023-05-10T02:56:36;13.60;99.90
1546;DHT22;766;51.502;9.752;2023-05-10T02:59:07;13.70;99.90
1546;DHT22;766;51.502;9.752;2023-05-10T03:01:36;13.70;99.90
1546;DHT22;766;51.502;9.752;2023-05-10T03:04:05;13.60;99.90
1546;DHT22;766;51.502;9.752;2023-05-10T03:06:34;13.60;99.90
1546;DHT22;766;51.502;9.752;2023-05-10T03:09:03;13.50;99.90
1546;DHT22;766;51.502;9.752;2023-05-10T03:11:48;13.50;99.90
1546;DHT22;766;51.502;9.752;2023-05-10T03:14:25;13.50;99.90
1546;DHT22;766;51.502;9.752;2023-05-10T03:16:58;13.50;99.90
1546;DHT22;766;51.502;9.752;2023-05-10T03:19:34;13.50;99.90
1546;DHT22;766;51.502;9.752;2023-05-10T03:22:10;13.50;99.90
1546;DHT22;766;51.502;9.752;2023-05-10T03:24:39;13.50;99.90
1546;DHT22;766;51.502;9.752;2023-05-10T03:27:10;13.40;99.90
1546;DHT22;766;51.502;9.752;2023-05-10T03:29:39;13.50;99.90
1546;DHT22;766;51.502;9.752;2023-05-10T03:32:07;13.50;99.90
1546;DHT22;766;51.502;9.752;2023-05-10T03:34:41;13.40;99.90
1546;DHT22;766;51.502;9.752;2023-05-10T03:37:10;13.30;99.90
1546;DHT22;766;51.502;9.752;2023-05-10T03:39:38;13.30;99.90
1546;DHT22;766;51.502;9.752;2023-05-10T03:42:06;13.30;99.90
1546;DHT22;766;51.502;9.752;2023-05-10T03:44:35;13.20;99.90
1546;DHT22;766;51.502;9.752;2023-05-10T03:47:04;13.30;99.90
1546;DHT22;766;51.502;9.752;2023-05-10T03:49:33;13.30;99.90
1546;DHT22;766;51.502;9.752;2023-05-10T03:52:03;13.40;99.90
1546;DHT22;766;51.502;9.752;2023-05-10T03:54:32;13.50;99.90
1546;DHT22;766;51.502;9.752;2023-05-10T03:57:00;13.50;99.90
1546;DHT22;766;51.502;9.752;2023-05-10T03:59:30;13.50;99.90
1546;DHT22;766;51.502;9.752;2023-05-10T04:02:01;13.40;99.90
1546;DHT22;766;51.502;9.752;2023-05-10T04:04:29;13.40;99.90
1546;DHT22;766;51.502;9.752;2023-05-10T04:06:58;13.30;99.90
1546;DHT22;766;51.502;9.752;2023-05-10T04:09:28;13.40;99.90
1546;DHT22;766;51.502;9.752;2023-05-10T04:11:56;13.30;99.90
1546;DHT22;766;51.502;9.752;2023-05-10T04:14:26;13.20;99.90
1546;DHT22;766;51.502;9.752;2023-05-10T04:16:54;13.10;99.90
1546;DHT22;766;51.502;9.752;2023-05-10T04:19:23;13.20;99.90
1546;DHT22;766;51.502;9.752;2023-05-10T04:21:51;13.20;99.90
1546;DHT22;766;51.502;9.752;2023-05-10T04:24:20;13.20;99.90
1546;DHT22;766;51.502;9.752;2023-05-10T04:26:50;13.30;99.90
1546;DHT22;766;51.502;9.752;2023-05-10T04:32:45;13.30;99.90
1546;DHT22;766;51.502;9.752;2023-05-10T04:35:29;13.40;99.90
1546;DHT22;766;51.502;9.752;2023-05-10T04:38:17;13.40;99.90
1546;DHT22;766;51.502;9.752;2023-05-10T04:40:48;13.40;99.90
1546;DHT22;766;51.502;9.752;2023-05-10T04:43:19;13.40;99.90
1546;DHT22;766;51.502;9.752;2023-05-10T04:45:48;13.40;99.90
1546;DHT22;766;51.502;9.752;2023-05-10T04:48:17;13.40;99.90
1546;DHT22;766;51.502;9.752;2023-05-10T04:50:52;13.40;99.90
1546;DHT22;766;51.502;9.752;2023-05-10T04:53:27;13.40;99.90
1546;DHT22;766;51.502;9.752;2023-05-10T04:56:02;13.30;99.90
1546;DHT22;766;51.502;9.752;2023-05-10T04:58:32;13.40;99.90
1546;DHT22;766;51.502;9.752;2023-05-10T05:01:05;13.40;99.90
1546;DHT22;766;51.502;9.752;2023-05-10T05:03:34;13.40;99.90
1546;DHT22;766;51.502;9.752;2023-05-10T05:06:03;13.40;99.90
1546;DHT22;766;51.502;9.752;2023-05-10T05:08:37;13.40;99.90
1546;DHT22;766;51.502;9.752;2023-05-10T05:11:07;13.40;99.90
1546;DHT22;766;51.502;9.752;2023-05-10T05:13:58;13.50;99.90
1546;DHT22;766;51.502;9.752;2023-05-10T05:16:31;13.40;99.90
1546;DHT22;766;51.502;9.752;2023-05-10T05:19:00;13.40;99.90
1546;DHT22;766;51.502;9.752;2023-05-10T05:21:28;13.40;99.90
1546;DHT22;766;51.502;9.752;2023-05-10T05:23:56;13.40;99.90
1546;DHT22;766;51.502;9.752;2023-05-10T05:26:26;13.40;99.90
1546;DHT22;766;51.502;9.752;2023-05-10T05:28:56;13.30;99.90
1546;DHT22;766;51.502;9.752;2023-05-10T05:31:24;13.40;99.90
1546;DHT22;766;51.502;9.752;2023-05-10T05:33:58;13.60;99.90
1546;DHT22;766;51.502;9.752;2023-05-10T05:36:28;13.40;99.90
1546;DHT22;766;51.502;9.752;2023-05-10T05:38:57;13.40;99.90
1546;DHT22;766;51.502;9.752;2023-05-10T05:41:26;13.30;99.90
1546;DHT22;766;51.502;9.752;2023-05-10T05:43:55;13.30;99.90
1546;DHT22;766;51.502;9.752;2023-05-10T05:46:23;13.20;99.90
1546;DHT22;766;51.502;9.752;2023-05-10T05:48:52;13.20;99.90
1546;DHT22;766;51.502;9.752;2023-05-10T05:51:21;13.30;99.90
1546;DHT22;766;51.502;9.752;2023-05-10T05:53:49;13.30;99.90
1546;DHT22;766;51.502;9.752;2023-05-10T05:56:18;13.30;99.90
1546;DHT22;766;51.502;9.752;2023-05-10T05:58:52;13.30;99.90
1546;DHT22;766;51.502;9.752;2023-05-10T06:01:26;13.40;99.90
1546;DHT22;766;51.502;9.752;2023-05-10T06:03:54;13.20;99.90
1546;DHT22;766;51.502;9.752;2023-05-10T06:06:23;13.30;99.90
1546;DHT22;766;51.502;9.752;2023-05-10T06:08:51;13.10;99.90
1546;DHT22;766;51.502;9.752;2023-05-10T06:11:20;13.20;99.90
1546;DHT22;766;51.502;9.752;2023-05-10T06:13:49;13.10;99.90
1546;DHT22;766;51.502;9.752;2023-05-10T06:16:18;13.10;99.90
1546;DHT22;766;51.502;9.752;2023-05-10T06:18:48;13.10;99.90
1546;DHT22;766;51.502;9.752;2023-05-10T06:21:16;13.20;99.90
1546;DHT22;766;51.502;9.752;2023-05-10T06:23:45;13.20;99.90
1546;DHT22;766;51.502;9.752;2023-05-10T06:26:14;13.20;99.90
1546;DHT22;766;51.502;9.752;2023-05-10T06:28:42;13.20;99.90
1546;DHT22;766;51.502;9.752;2023-05-10T06:31:10;13.20;99.90
1546;DHT22;766;51.502;9.752;2023-05-10T06:33:39;13.40;99.90
1546;DHT22;766;51.502;9.752;2023-05-10T06:36:09;13.40;99.90
1546;DHT22;766;51.502;9.752;2023-05-10T06:38:38;13.50;99.90
1546;DHT22;766;51.502;9.752;2023-05-10T06:41:06;13.60;99.90
1546;DHT22;766;51.502;9.752;2023-05-10T06:43:35;13.50;99.90
1546;DHT22;766;51.502;9.752;2023-05-10T06:46:06;13.40;99.90
1546;DHT22;766;51.502;9.752;2023-05-10T06:48:35;13.50;99.90
1546;DHT22;766;51.502;9.752;2023-05-10T06:51:03;13.40;99.90
1546;DHT22;766;51.502;9.752;2023-05-10T06:53:33;13.50;99.90
1546;DHT22;766;51.502;9.752;2023-05-10T06:56:02;13.40;99.90
1546;DHT22;766;51.502;9.752;2023-05-10T06:58:30;13.30;99.90
1546;DHT22;766;51.502;9.752;2023-05-10T07:01:03;13.40;99.90
1546;DHT22;766;51.502;9.752;2023-05-10T07:03:32;13.30;99.90
1546;DHT22;766;51.502;9.752;2023-05-10T07:06:01;13.30;99.90
1546;DHT22;766;51.502;9.752;2023-05-10T07:08:33;13.40;99.90
1546;DHT22;766;51.502;9.752;2023-05-10T07:11:05;13.40;99.90
1546;DHT22;766;51.502;9.752;2023-05-10T07:13:34;13.40;99.90
1546;DHT22;766;51.502;9.752;2023-05-10T07:16:03;13.40;99.90
1546;DHT22;766;51.502;9.752;2023-05-10T07:18:33;13.50;99.90
1546;DHT22;766;51.502;9.752;2023-05-10T07:21:01;13.50;99.90
1546;DHT22;766;51.502;9.752;2023-05-10T07:23:30;13.50;99.90
1546;DHT22;766;51.502;9.752;2023-05-10T07:25:59;13.50;99.90
1546;DHT22;766;51.502;9.752;2023-05-10T07:28:29;13.60;99.90
1546;DHT22;766;51.502;9.752;2023-05-10T07:30:57;13.40;99.90
1546;DHT22;766;51.502;9.752;2023-05-10T07:33:26;13.40;99.90
1546;DHT22;766;51.502;9.752;2023-05-10T07:35:54;13.50;99.90
1546;DHT22;766;51.502;9.752;2023-05-10T07:38:22;13.50;99.90
1546;DHT22;766;51.502;9.752;2023-05-10T07:40:51;13.80;99.90
1546;DHT22;766;51.502;9.752;2023-05-10T07:43:21;14.10;99.90
1546;DHT22;766;51.502;9.752;2023-05-10T07:45:49;14.50;99.90
1546;DHT22;766;51.502;9.752;2023-05-10T07:48:21;14.70;99.90
1546;DHT22;766;51.502;9.752;2023-05-10T07:50:50;14.80;99.90
1546;DHT22;766;51.502;9.752;2023-05-10T07:53:18;14.90;99.90
1546;DHT22;766;51.502;9.752;2023-05-10T07:55:50;14.90;99.90
1546;DHT22;766;51.502;9.752;2023-05-10T07:58:18;14.90;99.90
1546;DHT22;766;51.502;9.752;2023-05-10T08:00:48;15.10;99.90
1546;DHT22;766;51.502;9.752;2023-05-10T08:03:17;15.20;99.90
1546;DHT22;766;51.502;9.752;2023-05-10T08:05:45;15.00;99.90
1546;DHT22;766;51.502;9.752;2023-05-10T08:08:14;15.00;99.90
1546;DHT22;766;51.502;9.752;2023-05-10T08:10:42;14.90;99.90
1546;DHT22;766;51.502;9.752;2023-05-10T08:13:13;15.10;99.90
1546;DHT22;766;51.502;9.752;2023-05-10T08:15:42;15.20;99.90
1546;DHT22;766;51.502;9.752;2023-05-10T08:18:12;15.40;99.90
1546;DHT22;766;51.502;9.752;2023-05-10T08:20:41;15.60;99.90
1546;DHT22;766;51.502;9.752;2023-05-10T08:23:09;15.70;99.90
1546;DHT22;766;51.502;9.752;2023-05-10T08:25:38;15.70;99.90
1546;DHT22;766;51.502;9.752;2023-05-10T08:28:06;15.60;99.90
1546;DHT22;766;51.502;9.752;2023-05-10T08:30:37;15.70;99.90
1546;DHT22;766;51.502;9.752;2023-05-10T08:33:06;15.30;99.90
1546;DHT22;766;51.502;9.752;2023-05-10T08:35:35;15.30;99.90
1546;DHT22;766;51.502;9.752;2023-05-10T08:38:04;15.20;99.90
1546;DHT22;766;51.502;9.752;2023-05-10T08:40:32;15.10;99.90
1546;DHT22;766;51.502;9.752;2023-05-10T08:43:05;15.20;99.90
1546;DHT22;766;51.502;9.752;2023-05-10T08:45:39;16.30;99.90
1546;DHT22;766;51.502;9.752;2023-05-10T08:48:09;17.00;99.90
1546;DHT22;766;51.502;9.752;2023-05-10T08:50:40;17.30;99.90
1546;DHT22;766;51.502;9.752;2023-05-10T08:53:13;17.90;99.90
1546;DHT22;766;51.502;9.752;2023-05-10T08:55:46;17.80;99.90
1546;DHT22;766;51.502;9.752;2023-05-10T08:58:15;17.30;99.90
1546;DHT22;766;51.502;9.752;2023-05-10T09:00:44;17.10;99.90
1546;DHT22;766;51.502;9.752;2023-05-10T09:03:13;16.90;99.90
1546;DHT22;766;51.502;9.752;2023-05-10T09:05:43;16.80;99.90
1546;DHT22;766;51.502;9.752;2023-05-10T09:08:12;16.60;99.90
1546;DHT22;766;51.502;9.752;2023-05-10T09:10:43;16.50;99.90
1546;DHT22;766;51.502;9.752;2023-05-10T09:13:14;16.40;99.90
1546;DHT22;766;51.502;9.752;2023-05-10T09:15:43;16.50;99.90
1546;DHT22;766;51.502;9.752;2023-05-10T09:18:12;16.50;99.90
1546;DHT22;766;51.502;9.752;2023-05-10T09:20:45;16.20;99.90
1546;DHT22;766;51.502;9.752;2023-05-10T09:23:16;15.90;99.90
1546;DHT22;766;51.502;9.752;2023-05-10T09:25:45;15.90;99.90
1546;DHT22;766;51.502;9.752;2023-05-10T09:28:13;15.80;99.90
1546;DHT22;766;51.502;9.752;2023-05-10T09:30:41;15.80;99.90
1546;DHT22;766;51.502;9.752;2023-05-10T09:33:10;16.00;99.90
1546;DHT22;766;51.502;9.752;2023-05-10T09:35:38;16.70;99.90
1546;DHT22;766;51.502;9.752;2023-05-10T09:38:08;17.10;99.90
1546;DHT22;766;51.502;9.752;2023-05-10T09:40:37;17.50;99.90
1546;DHT22;766;51.502;9.752;2023-05-10T09:43:08;18.50;99.90
1546;DHT22;766;51.502;9.752;2023-05-10T09:45:37;19.80;99.90
1546;DHT22;766;51.502;9.752;2023-05-10T09:48:06;20.80;99.90
1546;DHT22;766;51.502;9.752;2023-05-10T09:50:35;20.60;99.90
1546;DHT22;766;51.502;9.752;2023-05-10T09:53:03;20.80;99.90
1546;DHT22;766;51.502;9.752;2023-05-10T09:55:41;20.50;99.90
1546;DHT22;766;51.502;9.752;2023-05-10T09:58:12;20.40;99.90
1546;DHT22;766;51.502;9.752;2023-05-10T10:00:42;19.90;99.90
1546;DHT22;766;51.502;9.752;2023-05-10T10:03:15;19.60;99.90
1546;DHT22;766;51.502;9.752;2023-05-10T10:05:45;19.90;99.90
1546;DHT22;766;51.502;9.752;2023-05-10T10:08:14;20.20;99.90
1546;DHT22;766;51.502;9.752;2023-05-10T10:10:44;20.00;99.90
1546;DHT22;766;51.502;9.752;2023-05-10T10:13:14;19.50;99.90
1546;DHT22;766;51.502;9.752;2023-05-10T10:15:43;19.00;99.90
1546;DHT22;766;51.502;9.752;2023-05-10T10:18:14;18.90;99.90
1546;DHT22;766;51.502;9.752;2023-05-10T10:20:42;18.80;99.90
1546;DHT22;766;51.502;9.752;2023-05-10T10:23:11;18.30;99.90
1546;DHT22;766;51.502;9.752;2023-05-10T10:25:48;18.10;99.90
1546;DHT22;766;51.502;9.752;2023-05-10T10:28:25;17.20;99.90
1546;DHT22;766;51.502;9.752;2023-05-10T10:30:56;17.20;99.90
1546;DHT22;766;51.502;9.752;2023-05-10T10:33:40;17.20;99.90
1546;DHT22;766;51.502;9.752;2023-05-10T10:36:15;17.10;99.90
1546;DHT22;766;51.502;9.752;2023-05-10T10:39:00;16.90;99.90
1546;DHT22;766;51.502;9.752;2023-05-10T10:41:34;16.70;99.90
1546;DHT22;766;51.502;9.752;2023-05-10T10:44:22;16.50;99.90
1546;DHT22;766;51.502;9.752;2023-05-10T10:47:02;16.50;99.90
1546;DHT22;766;51.502;9.752;2023-05-10T10:49:37;16.20;99.90
1546;DHT22;766;51.502;9.752;2023-05-10T10:52:23;16.10;99.90
1546;DHT22;766;51.502;9.752;2023-05-10T10:54:59;16.30;99.90
1546;DHT22;766;51.502;9.752;2023-05-10T10:57:32;16.40;99.90
1546;DHT22;766;51.502;9.752;2023-05-10T11:00:21;16.60;99.90
1546;DHT22;766;51.502;9.752;2023-05-10T11:02:51;16.90;99.90
1546;DHT22;766;51.502;9.752;2023-05-10T11:05:24;17.60;99.90
1546;DHT22;766;51.502;9.752;2023-05-10T11:07:57;17.80;99.90
1546;DHT22;766;51.502;9.752;2023-05-10T11:10:28;18.70;99.90
1546;DHT22;766;51.502;9.752;2023-05-10T11:13:02;19.40;99.90
1546;DHT22;766;51.502;9.752;2023-05-10T11:15:32;19.70;99.90
1546;DHT22;766;51.502;9.752;2023-05-10T11:18:16;19.80;99.90
1546;DHT22;766;51.502;9.752;2023-05-10T11:20:50;20.60;99.90
1546;DHT22;766;51.502;9.752;2023-05-10T11:23:18;20.70;99.90
1546;DHT22;766;51.502;9.752;2023-05-10T11:25:48;20.40;99.90
1546;DHT22;766;51.502;9.752;2023-05-10T11:28:19;19.50;99.90
1546;DHT22;766;51.502;9.752;2023-05-10T11:30:47;19.30;99.90
1546;DHT22;766;51.502;9.752;2023-05-10T11:33:20;19.20;99.90
1546;DHT22;766;51.502;9.752;2023-05-10T11:35:49;19.20;99.90
1546;DHT22;766;51.502;9.752;2023-05-10T11:38:18;18.80;99.90
1546;DHT22;766;51.502;9.752;2023-05-10T11:40:52;19.10;99.90
1546;DHT22;766;51.502;9.752;2023-05-10T11:43:30;19.40;99.90
1546;DHT22;766;51.502;9.752;2023-05-10T11:45:59;19.30;99.90
1546;DHT22;766;51.502;9.752;2023-05-10T11:48:29;19.20;99.90
1546;DHT22;766;51.502;9.752;2023-05-10T11:50:58;19.10;99.90
1546;DHT22;766;51.502;9.752;2023-05-10T11:53:26;19.00;99.90
1546;DHT22;766;51.502;9.752;2023-05-10T11:55:55;19.20;99.90
1546;DHT22;766;51.502;9.752;2023-05-10T11:58:26;19.40;99.90
1546;DHT22;766;51.502;9.752;2023-05-10T12:00:54;19.20;99.90
1546;DHT22;766;51.502;9.752;2023-05-10T12:03:23;19.50;99.90
1546;DHT22;766;51.502;9.752;2023-05-10T12:05:51;19.40;99.90
1546;DHT22;766;51.502;9.752;2023-05-10T12:08:23;19.50;99.90
1546;DHT22;766;51.502;9.752;2023-05-10T12:10:52;19.50;99.90
1546;DHT22;766;51.502;9.752;2023-05-10T12:13:20;19.90;99.90
1546;DHT22;766;51.502;9.752;2023-05-10T12:15:50;19.80;99.90
1546;DHT22;766;51.502;9.752;2023-05-10T12:18:39;19.80;99.90
1546;DHT22;766;51.502;9.752;2023-05-10T12:21:13;19.90;99.90
1546;DHT22;766;51.502;9.752;2023-05-10T12:23:46;19.80;99.90
1546;DHT22;766;51.502;9.752;2023-05-10T12:26:15;20.20;99.90
1546;DHT22;766;51.502;9.752;2023-05-10T12:28:44;20.00;99.90
1546;DHT22;766;51.502;9.752;2023-05-10T12:31:15;20.50;99.90
1546;DHT22;766;51.502;9.752;2023-05-10T12:33:44;21.00;99.90
1546;DHT22;766;51.502;9.752;2023-05-10T12:36:15;20.60;99.90
1546;DHT22;766;51.502;9.752;2023-05-10T12:38:45;20.30;99.90
1546;DHT22;766;51.502;9.752;2023-05-10T12:41:33;20.50;99.90
1546;DHT22;766;51.502;9.752;2023-05-10T12:44:08;20.60;99.90
1546;DHT22;766;51.502;9.752;2023-05-10T12:46:39;20.20;99.90
1546;DHT22;766;51.502;9.752;2023-05-10T12:49:07;19.90;99.90
1546;DHT22;766;51.502;9.752;2023-05-10T12:51:36;19.80;99.90
1546;DHT22;766;51.502;9.752;2023-05-10T12:54:05;20.10;99.90
1546;DHT22;766;51.502;9.752;2023-05-10T12:56:34;20.40;99.90
1546;DHT22;766;51.502;9.752;2023-05-10T12:59:02;20.10;99.90
1546;DHT22;766;51.502;9.752;2023-05-10T13:01:31;19.80;99.90
1546;DHT22;766;51.502;9.752;2023-05-10T13:04:00;20.20;99.90
1546;DHT22;766;51.502;9.752;2023-05-10T13:06:29;20.50;99.90
1546;DHT22;766;51.502;9.752;2023-05-10T13:08:57;20.00;99.90
1546;DHT22;766;51.502;9.752;2023-05-10T13:11:26;20.10;99.90
1546;DHT22;766;51.502;9.752;2023-05-10T13:13:54;20.20;99.90
1546;DHT22;766;51.502;9.752;2023-05-10T13:16:22;20.30;99.90
1546;DHT22;766;51.502;9.752;2023-05-10T13:18:51;20.30;99.90
1546;DHT22;766;51.502;9.752;2023-05-10T13:21:20;20.40;99.90
1546;DHT22;766;51.502;9.752;2023-05-10T13:23:51;20.50;99.90
1546;DHT22;766;51.502;9.752;2023-05-10T13:26:19;20.30;99.90
1546;DHT22;766;51.502;9.752;2023-05-10T13:28:48;20.30;99.90
1546;DHT22;766;51.502;9.752;2023-05-10T13:31:18;19.30;99.90
1546;DHT22;766;51.502;9.752;2023-05-10T13:33:47;18.90;99.90
1546;DHT22;766;51.502;9.752;2023-05-10T13:36:16;18.80;99.90
1546;DHT22;766;51.502;9.752;2023-05-10T13:38:45;19.10;99.90
1546;DHT22;766;51.502;9.752;2023-05-10T13:41:14;19.40;99.90
1546;DHT22;766;51.502;9.752;2023-05-10T13:43:42;19.60;99.90
1546;DHT22;766;51.502;9.752;2023-05-10T13:46:10;19.30;99.90
1546;DHT22;766;51.502;9.752;2023-05-10T13:48:39;19.30;99.90
1546;DHT22;766;51.502;9.752;2023-05-10T13:51:07;18.80;99.90
1546;DHT22;766;51.502;9.752;2023-05-10T13:53:36;19.20;99.90
1546;DHT22;766;51.502;9.752;2023-05-10T13:56:09;19.20;99.90
1546;DHT22;766;51.502;9.752;2023-05-10T13:58:37;17.90;99.90
1546;DHT22;766;51.502;9.752;2023-05-10T14:01:06;17.10;99.90
1546;DHT22;766;51.502;9.752;2023-05-10T14:03:34;16.40;99.90
1546;DHT22;766;51.502;9.752;2023-05-10T14:06:03;16.00;99.90
1546;DHT22;766;51.502;9.752;2023-05-10T14:08:35;16.00;99.90
1546;DHT22;766;51.502;9.752;2023-05-10T14:11:03;15.90;99.90
1546;DHT22;766;51.502;9.752;2023-05-10T14:13:34;15.70;99.90
1546;DHT22;766;51.502;9.752;2023-05-10T14:16:04;15.70;99.90
1546;DHT22;766;51.502;9.752;2023-05-10T14:18:33;15.60;99.90
1546;DHT22;766;51.502;9.752;2023-05-10T14:21:02;15.50;99.90
1546;DHT22;766;51.502;9.752;2023-05-10T14:23:31;15.20;99.90
1546;DHT22;766;51.502;9.752;2023-05-10T14:25:59;15.10;99.90
1546;DHT22;766;51.502;9.752;2023-05-10T14:28:28;15.10;99.90
1546;DHT22;766;51.502;9.752;2023-05-10T14:30:58;15.20;99.90
1546;DHT22;766;51.502;9.752;2023-05-10T14:33:27;15.20;99.90
1546;DHT22;766;51.502;9.752;2023-05-10T14:35:55;15.30;99.90
1546;DHT22;766;51.502;9.752;2023-05-10T14:38:24;15.10;99.90
1546;DHT22;766;51.502;9.752;2023-05-10T14:40:53;15.20;99.90
1546;DHT22;766;51.502;9.752;2023-05-10T14:43:21;15.50;99.90
1546;DHT22;766;51.502;9.752;2023-05-10T14:45:50;15.70;99.90
1546;DHT22;766;51.502;9.752;2023-05-10T14:48:21;15.90;99.90
1546;DHT22;766;51.502;9.752;2023-05-10T14:50:56;15.80;99.90
1546;DHT22;766;51.502;9.752;2023-05-10T14:53:26;16.00;99.90
1546;DHT22;766;51.502;9.752;2023-05-10T14:55:55;15.70;99.90
1546;DHT22;766;51.502;9.752;2023-05-10T14:58:24;15.10;99.90
1546;DHT22;766;51.502;9.752;2023-05-10T15:00:53;15.10;99.90
1546;DHT22;766;51.502;9.752;2023-05-10T15:03:26;15.00;99.90
1546;DHT22;766;51.502;9.752;2023-05-10T15:05:55;14.90;99.90
1546;DHT22;766;51.502;9.752;2023-05-10T15:08:24;14.80;99.90
1546;DHT22;766;51.502;9.752;2023-05-10T15:10:53;15.00;99.90
1546;DHT22;766;51.502;9.752;2023-05-10T15:13:22;15.10;99.90
1546;DHT22;766;51.502;9.752;2023-05-10T15:15:51;14.90;99.90
1546;DHT22;766;51.502;9.752;2023-05-10T15:18:19;14.80;99.90
1546;DHT22;766;51.502;9.752;2023-05-10T15:20:52;14.80;99.90
1546;DHT22;766;51.502;9.752;2023-05-10T15:23:20;14.80;99.90
1546;DHT22;766;51.502;9.752;2023-05-10T15:25:48;14.70;99.90
1546;DHT22;766;51.502;9.752;2023-05-10T15:28:17;14.90;99.90
1546;DHT22;766;51.502;9.752;2023-05-10T15:30:48;15.00;99.90
1546;DHT22;766;51.502;9.752;2023-05-10T15:33:17;14.90;99.90
1546;DHT22;766;51.502;9.752;2023-05-10T15:35:45;15.00;99.90
1546;DHT22;766;51.502;9.752;2023-05-10T15:38:15;14.90;99.90
1546;DHT22;766;51.502;9.752;2023-05-10T15:40:43;15.00;99.90
1546;DHT22;766;51.502;9.752;2023-05-10T15:43:12;15.00;99.90
1546;DHT22;766;51.502;9.752;2023-05-10T15:45:40;14.90;99.90
1546;DHT22;766;51.502;9.752;2023-05-10T15:48:09;14.90;99.90
1546;DHT22;766;51.502;9.752;2023-05-10T15:50:38;14.90;99.90
1546;DHT22;766;51.502;9.752;2023-05-10T15:53:07;15.00;99.90
1546;DHT22;766;51.502;9.752;2023-05-10T15:55:37;14.90;99.90
1546;DHT22;766;51.502;9.752;2023-05-10T15:58:06;15.40;99.90
1546;DHT22;766;51.502;9.752;2023-05-10T16:00:34;15.30;99.90
1546;DHT22;766;51.502;9.752;2023-05-10T16:03:03;15.20;99.90
1546;DHT22;766;51.502;9.752;2023-05-10T16:05:33;15.30;99.90
1546;DHT22;766;51.502;9.752;2023-05-10T16:08:01;15.30;99.90
1546;DHT22;766;51.502;9.752;2023-05-10T16:10:31;15.40;99.90
1546;DHT22;766;51.502;9.752;2023-05-10T16:13:01;15.30;99.90
1546;DHT22;766;51.502;9.752;2023-05-10T16:15:30;15.10;99.90
1546;DHT22;766;51.502;9.752;2023-05-10T16:17:58;15.10;99.90
1546;DHT22;766;51.502;9.752;2023-05-10T16:20:26;15.10;99.90
1546;DHT22;766;51.502;9.752;2023-05-10T16:22:56;15.00;99.90
1546;DHT22;766;51.502;9.752;2023-05-10T16:25:24;15.10;99.90
1546;DHT22;766;51.502;9.752;2023-05-10T16:27:52;15.10;99.90
1546;DHT22;766;51.502;9.752;2023-05-10T16:30:22;15.00;99.90
1546;DHT22;766;51.502;9.752;2023-05-10T16:32:53;15.00;99.90
1546;DHT22;766;51.502;9.752;2023-05-10T16:35:21;15.20;99.90
1546;DHT22;766;51.502;9.752;2023-05-10T16:37:50;15.20;99.90
1546;DHT22;766;51.502;9.752;2023-05-10T16:40:19;15.00;99.90
1546;DHT22;766;51.502;9.752;2023-05-10T16:42:47;15.10;99.90